Urb La Inmaculada, Puerto Rico
Current Conditions -  °F | °C
As of 8:53 PM on Monday 24 Nov 2014 (Local Time) from TJNR Reporting Station
Overcast Overcast  
Wind Chill: 80°   Ceiling: 7000
Heat Index: 85°   Visibility: 10mi
Dew Point: 74°   Wind: 10mph
Humidity: 81%   Direction: 80°E
Pressure: 30.08"   Gusts: NA
Location:  18.1853°N, 65.8667°W
Report Text: TJNR 250053Z AUTO 08009KT 10SM SCT045 BKN070 OVC090 27/23 A3008 RMK AO2 RAE03 SLP186 P0001 T02670233 $
Loading
Personal Weather Stations






























Interactive Weather Map New forecast layout! Learn more

10-Day Weather Forecast

Advertisements
Track Severe Weather on mobile